sensor_id;sensor_type;location;lat;lon;timestamp;P1;durP1;ratioP1;P2;durP2;ratioP2
53666;SDS011;39568;51.026;5.468;2023-04-25T00:00:59;21.70;;;5.57;;
53666;SDS011;39568;51.026;5.468;2023-04-25T00:03:27;28.17;;;9.48;;
53666;SDS011;39568;51.026;5.468;2023-04-25T00:05:57;16.40;;;4.32;;
53666;SDS011;39568;51.026;5.468;2023-04-25T00:08:27;28.52;;;6.05;;
53666;SDS011;39568;51.026;5.468;2023-04-25T00:10:54;18.33;;;4.35;;
53666;SDS011;39568;51.026;5.468;2023-04-25T00:13:28;28.60;;;5.05;;
53666;SDS011;39568;51.026;5.468;2023-04-25T00:15:56;19.45;;;5.90;;
53666;SDS011;39568;51.026;5.468;2023-04-25T00:18:24;19.85;;;5.38;;
53666;SDS011;39568;51.026;5.468;2023-04-25T00:20:53;21.92;;;4.32;;
53666;SDS011;39568;51.026;5.468;2023-04-25T00:23:21;16.50;;;4.07;;
53666;SDS011;39568;51.026;5.468;2023-04-25T00:25:49;25.05;;;5.63;;
53666;SDS011;39568;51.026;5.468;2023-04-25T00:28:16;23.75;;;4.88;;
53666;SDS011;39568;51.026;5.468;2023-04-25T00:30:43;17.08;;;5.65;;
53666;SDS011;39568;51.026;5.468;2023-04-25T00:33:10;24.10;;;5.05;;
53666;SDS011;39568;51.026;5.468;2023-04-25T00:35:38;10.85;;;4.88;;
53666;SDS011;39568;51.026;5.468;2023-04-25T00:38:04;19.20;;;4.10;;
53666;SDS011;39568;51.026;5.468;2023-04-25T00:40:32;30.85;;;5.70;;
53666;SDS011;39568;51.026;5.468;2023-04-25T00:42:59;13.50;;;4.03;;
53666;SDS011;39568;51.026;5.468;2023-04-25T00:45:27;17.70;;;4.65;;
53666;SDS011;39568;51.026;5.468;2023-04-25T00:47:55;14.70;;;4.25;;
53666;SDS011;39568;51.026;5.468;2023-04-25T00:50:22;20.83;;;4.82;;
53666;SDS011;39568;51.026;5.468;2023-04-25T00:52:50;25.65;;;6.15;;
53666;SDS011;39568;51.026;5.468;2023-04-25T00:55:17;20.52;;;4.75;;
53666;SDS011;39568;51.026;5.468;2023-04-25T00:57:44;22.20;;;3.95;;
53666;SDS011;39568;51.026;5.468;2023-04-25T01:00:12;19.90;;;4.68;;
53666;SDS011;39568;51.026;5.468;2023-04-25T01:02:42;9.30;;;4.40;;
53666;SDS011;39568;51.026;5.468;2023-04-25T01:05:09;10.60;;;4.10;;
53666;SDS011;39568;51.026;5.468;2023-04-25T01:07:37;10.52;;;4.15;;
53666;SDS011;39568;51.026;5.468;2023-04-25T01:10:06;14.27;;;4.28;;
53666;SDS011;39568;51.026;5.468;2023-04-25T01:12:33;14.38;;;4.63;;
53666;SDS011;39568;51.026;5.468;2023-04-25T01:15:00;21.05;;;4.63;;
53666;SDS011;39568;51.026;5.468;2023-04-25T01:17:29;25.23;;;5.65;;
53666;SDS011;39568;51.026;5.468;2023-04-25T01:19:56;8.85;;;3.80;;
53666;SDS011;39568;51.026;5.468;2023-04-25T01:22:24;16.52;;;5.18;;
53666;SDS011;39568;51.026;5.468;2023-04-25T01:24:51;24.13;;;4.72;;
53666;SDS011;39568;51.026;5.468;2023-04-25T01:27:18;21.88;;;6.25;;
53666;SDS011;39568;51.026;5.468;2023-04-25T01:29:45;25.08;;;7.10;;
53666;SDS011;39568;51.026;5.468;2023-04-25T01:32:12;26.08;;;5.60;;
53666;SDS011;39568;51.026;5.468;2023-04-25T01:34:40;18.88;;;5.75;;
53666;SDS011;39568;51.026;5.468;2023-04-25T01:37:09;13.85;;;5.35;;
53666;SDS011;39568;51.026;5.468;2023-04-25T01:39:37;27.90;;;6.47;;
53666;SDS011;39568;51.026;5.468;2023-04-25T01:42:04;19.63;;;5.25;;
53666;SDS011;39568;51.026;5.468;2023-04-25T01:44:31;27.13;;;5.90;;
53666;SDS011;39568;51.026;5.468;2023-04-25T01:46:58;14.65;;;4.57;;
53666;SDS011;39568;51.026;5.468;2023-04-25T01:49:24;17.80;;;5.15;;
53666;SDS011;39568;51.026;5.468;2023-04-25T01:51:51;26.17;;;5.03;;
53666;SDS011;39568;51.026;5.468;2023-04-25T01:54:18;26.25;;;5.60;;
53666;SDS011;39568;51.026;5.468;2023-04-25T01:56:51;18.02;;;5.13;;
53666;SDS011;39568;51.026;5.468;2023-04-25T01:59:18;24.83;;;6.03;;
53666;SDS011;39568;51.026;5.468;2023-04-25T02:01:45;39.78;;;6.28;;
53666;SDS011;39568;51.026;5.468;2023-04-25T02:04:12;23.77;;;5.78;;
53666;SDS011;39568;51.026;5.468;2023-04-25T02:06:39;16.50;;;4.90;;
53666;SDS011;39568;51.026;5.468;2023-04-25T02:09:08;16.40;;;5.72;;
53666;SDS011;39568;51.026;5.468;2023-04-25T02:11:35;20.92;;;5.95;;
53666;SDS011;39568;51.026;5.468;2023-04-25T02:14:07;20.35;;;5.18;;
53666;SDS011;39568;51.026;5.468;2023-04-25T02:16:43;14.60;;;6.00;;
53666;SDS011;39568;51.026;5.468;2023-04-25T02:19:11;20.13;;;5.90;;
53666;SDS011;39568;51.026;5.468;2023-04-25T02:21:38;25.70;;;5.97;;
53666;SDS011;39568;51.026;5.468;2023-04-25T02:24:05;23.10;;;5.60;;
53666;SDS011;39568;51.026;5.468;2023-04-25T02:26:32;24.50;;;7.03;;
53666;SDS011;39568;51.026;5.468;2023-04-25T02:28:59;24.70;;;5.60;;
53666;SDS011;39568;51.026;5.468;2023-04-25T02:31:27;21.30;;;6.78;;
53666;SDS011;39568;51.026;5.468;2023-04-25T02:33:54;30.95;;;7.80;;
53666;SDS011;39568;51.026;5.468;2023-04-25T02:36:20;21.58;;;5.78;;
53666;SDS011;39568;51.026;5.468;2023-04-25T02:38:47;27.83;;;7.00;;
53666;SDS011;39568;51.026;5.468;2023-04-25T02:41:14;19.30;;;6.13;;
53666;SDS011;39568;51.026;5.468;2023-04-25T02:43:44;26.55;;;6.82;;
53666;SDS011;39568;51.026;5.468;2023-04-25T02:46:12;33.13;;;7.38;;
53666;SDS011;39568;51.026;5.468;2023-04-25T02:48:40;23.35;;;6.38;;
53666;SDS011;39568;51.026;5.468;2023-04-25T02:51:07;31.02;;;6.28;;
53666;SDS011;39568;51.026;5.468;2023-04-25T02:53:34;44.10;;;8.13;;
53666;SDS011;39568;51.026;5.468;2023-04-25T02:56:01;16.27;;;5.70;;
53666;SDS011;39568;51.026;5.468;2023-04-25T02:58:28;15.50;;;5.95;;
53666;SDS011;39568;51.026;5.468;2023-04-25T03:00:55;13.10;;;5.50;;
53666;SDS011;39568;51.026;5.468;2023-04-25T03:03:21;20.95;;;6.00;;
53666;SDS011;39568;51.026;5.468;2023-04-25T03:05:49;39.28;;;7.47;;
53666;SDS011;39568;51.026;5.468;2023-04-25T03:08:16;20.13;;;6.20;;
53666;SDS011;39568;51.026;5.468;2023-04-25T03:10:43;23.83;;;6.28;;
53666;SDS011;39568;51.026;5.468;2023-04-25T03:13:10;20.90;;;5.50;;
53666;SDS011;39568;51.026;5.468;2023-04-25T03:15:37;21.40;;;6.90;;
53666;SDS011;39568;51.026;5.468;2023-04-25T03:18:04;27.65;;;8.23;;
53666;SDS011;39568;51.026;5.468;2023-04-25T03:20:31;17.95;;;6.25;;
53666;SDS011;39568;51.026;5.468;2023-04-25T03:22:59;21.38;;;6.65;;
53666;SDS011;39568;51.026;5.468;2023-04-25T03:25:26;24.27;;;6.63;;
53666;SDS011;39568;51.026;5.468;2023-04-25T03:27:52;25.63;;;8.10;;
53666;SDS011;39568;51.026;5.468;2023-04-25T03:30:20;22.95;;;7.40;;
53666;SDS011;39568;51.026;5.468;2023-04-25T03:32:47;26.25;;;8.05;;
53666;SDS011;39568;51.026;5.468;2023-04-25T03:35:13;15.02;;;6.97;;
53666;SDS011;39568;51.026;5.468;2023-04-25T03:37:43;34.45;;;8.70;;
53666;SDS011;39568;51.026;5.468;2023-04-25T03:40:12;25.20;;;9.93;;
53666;SDS011;39568;51.026;5.468;2023-04-25T03:42:39;36.97;;;8.90;;
53666;SDS011;39568;51.026;5.468;2023-04-25T03:45:06;18.42;;;7.63;;
53666;SDS011;39568;51.026;5.468;2023-04-25T03:47:34;22.30;;;7.55;;
53666;SDS011;39568;51.026;5.468;2023-04-25T03:50:01;32.08;;;7.93;;
53666;SDS011;39568;51.026;5.468;2023-04-25T03:52:29;35.10;;;8.70;;
53666;SDS011;39568;51.026;5.468;2023-04-25T03:54:56;30.73;;;8.20;;
53666;SDS011;39568;51.026;5.468;2023-04-25T03:57:31;35.78;;;7.60;;
53666;SDS011;39568;51.026;5.468;2023-04-25T03:59:59;32.00;;;8.63;;
53666;SDS011;39568;51.026;5.468;2023-04-25T04:02:25;28.48;;;9.00;;
53666;SDS011;39568;51.026;5.468;2023-04-25T04:04:52;27.20;;;6.88;;
53666;SDS011;39568;51.026;5.468;2023-04-25T04:07:21;25.70;;;7.13;;
53666;SDS011;39568;51.026;5.468;2023-04-25T04:09:47;24.60;;;7.10;;
53666;SDS011;39568;51.026;5.468;2023-04-25T04:12:15;30.30;;;7.72;;
53666;SDS011;39568;51.026;5.468;2023-04-25T04:14:43;18.15;;;6.80;;
53666;SDS011;39568;51.026;5.468;2023-04-25T04:17:10;32.63;;;8.35;;
53666;SDS011;39568;51.026;5.468;2023-04-25T04:19:36;27.02;;;8.45;;
53666;SDS011;39568;51.026;5.468;2023-04-25T04:22:03;27.85;;;8.68;;
53666;SDS011;39568;51.026;5.468;2023-04-25T04:24:30;26.08;;;8.15;;
53666;SDS011;39568;51.026;5.468;2023-04-25T04:26:56;19.13;;;7.45;;
53666;SDS011;39568;51.026;5.468;2023-04-25T04:29:24;27.98;;;8.25;;
53666;SDS011;39568;51.026;5.468;2023-04-25T04:31:52;28.00;;;7.35;;
53666;SDS011;39568;51.026;5.468;2023-04-25T04:34:18;39.50;;;8.15;;
53666;SDS011;39568;51.026;5.468;2023-04-25T04:36:45;38.83;;;10.93;;
53666;SDS011;39568;51.026;5.468;2023-04-25T04:39:14;38.38;;;8.38;;
53666;SDS011;39568;51.026;5.468;2023-04-25T04:41:41;29.73;;;8.82;;
53666;SDS011;39568;51.026;5.468;2023-04-25T04:44:08;32.22;;;8.48;;
53666;SDS011;39568;51.026;5.468;2023-04-25T04:46:37;25.00;;;8.85;;
53666;SDS011;39568;51.026;5.468;2023-04-25T04:49:09;25.30;;;7.88;;
53666;SDS011;39568;51.026;5.468;2023-04-25T04:51:42;24.20;;;8.30;;
53666;SDS011;39568;51.026;5.468;2023-04-25T04:54:10;24.23;;;8.32;;
53666;SDS011;39568;51.026;5.468;2023-04-25T04:56:37;33.05;;;11.52;;
53666;SDS011;39568;51.026;5.468;2023-04-25T04:59:11;34.42;;;10.05;;
53666;SDS011;39568;51.026;5.468;2023-04-25T05:01:38;24.05;;;9.40;;
53666;SDS011;39568;51.026;5.468;2023-04-25T05:04:05;39.15;;;11.18;;
53666;SDS011;39568;51.026;5.468;2023-04-25T05:06:33;14.00;;;7.55;;
53666;SDS011;39568;51.026;5.468;2023-04-25T05:09:00;29.52;;;7.57;;
53666;SDS011;39568;51.026;5.468;2023-04-25T05:11:26;34.55;;;9.48;;
53666;SDS011;39568;51.026;5.468;2023-04-25T05:13:53;25.35;;;7.85;;
53666;SDS011;39568;51.026;5.468;2023-04-25T05:16:23;25.52;;;7.95;;
53666;SDS011;39568;51.026;5.468;2023-04-25T05:18:50;28.50;;;7.50;;
53666;SDS011;39568;51.026;5.468;2023-04-25T05:21:17;34.30;;;7.05;;
53666;SDS011;39568;51.026;5.468;2023-04-25T05:23:50;24.67;;;7.72;;
53666;SDS011;39568;51.026;5.468;2023-04-25T05:26:22;24.60;;;6.95;;
53666;SDS011;39568;51.026;5.468;2023-04-25T05:28:49;26.05;;;6.50;;
53666;SDS011;39568;51.026;5.468;2023-04-25T05:31:16;24.92;;;7.18;;
53666;SDS011;39568;51.026;5.468;2023-04-25T05:33:42;28.30;;;8.65;;
53666;SDS011;39568;51.026;5.468;2023-04-25T05:36:09;20.05;;;6.45;;
53666;SDS011;39568;51.026;5.468;2023-04-25T05:38:36;32.67;;;6.63;;
53666;SDS011;39568;51.026;5.468;2023-04-25T05:41:04;23.70;;;6.18;;
53666;SDS011;39568;51.026;5.468;2023-04-25T05:43:33;25.85;;;6.72;;
53666;SDS011;39568;51.026;5.468;2023-04-25T05:46:00;28.15;;;7.32;;
53666;SDS011;39568;51.026;5.468;2023-04-25T05:48:27;28.17;;;7.28;;
53666;SDS011;39568;51.026;5.468;2023-04-25T05:50:53;18.08;;;5.97;;
53666;SDS011;39568;51.026;5.468;2023-04-25T05:53:23;34.78;;;5.53;;
53666;SDS011;39568;51.026;5.468;2023-04-25T05:55:50;33.45;;;6.25;;
53666;SDS011;39568;51.026;5.468;2023-04-25T05:58:18;31.70;;;6.88;;
53666;SDS011;39568;51.026;5.468;2023-04-25T06:00:45;18.83;;;4.85;;
53666;SDS011;39568;51.026;5.468;2023-04-25T06:03:11;33.60;;;5.25;;
53666;SDS011;39568;51.026;5.468;2023-04-25T06:05:39;17.67;;;5.97;;
53666;SDS011;39568;51.026;5.468;2023-04-25T06:08:07;26.77;;;7.45;;
53666;SDS011;39568;51.026;5.468;2023-04-25T06:10:34;26.55;;;4.95;;
53666;SDS011;39568;51.026;5.468;2023-04-25T06:13:01;23.08;;;4.88;;
53666;SDS011;39568;51.026;5.468;2023-04-25T06:15:29;30.20;;;6.47;;
53666;SDS011;39568;51.026;5.468;2023-04-25T06:17:57;13.13;;;4.65;;
53666;SDS011;39568;51.026;5.468;2023-04-25T06:20:24;39.17;;;5.97;;
53666;SDS011;39568;51.026;5.468;2023-04-25T06:22:52;14.18;;;4.18;;
53666;SDS011;39568;51.026;5.468;2023-04-25T06:25:19;25.17;;;5.65;;
53666;SDS011;39568;51.026;5.468;2023-04-25T06:27:46;20.55;;;5.10;;
53666;SDS011;39568;51.026;5.468;2023-04-25T06:30:12;18.42;;;4.50;;
53666;SDS011;39568;51.026;5.468;2023-04-25T06:32:41;17.20;;;5.10;;
53666;SDS011;39568;51.026;5.468;2023-04-25T06:35:13;26.27;;;4.03;;
53666;SDS011;39568;51.026;5.468;2023-04-25T06:37:40;12.52;;;3.90;;
53666;SDS011;39568;51.026;5.468;2023-04-25T06:40:08;12.27;;;4.30;;
53666;SDS011;39568;51.026;5.468;2023-04-25T06:42:36;18.85;;;4.15;;
53666;SDS011;39568;51.026;5.468;2023-04-25T06:45:02;16.48;;;4.03;;
53666;SDS011;39568;51.026;5.468;2023-04-25T06:47:30;18.83;;;4.90;;
53666;SDS011;39568;51.026;5.468;2023-04-25T06:49:58;18.10;;;4.30;;
53666;SDS011;39568;51.026;5.468;2023-04-25T06:52:27;18.63;;;3.42;;
53666;SDS011;39568;51.026;5.468;2023-04-25T06:54:54;19.95;;;3.13;;
53666;SDS011;39568;51.026;5.468;2023-04-25T06:59:52;14.35;;;4.30;;
53666;SDS011;39568;51.026;5.468;2023-04-25T07:02:19;19.35;;;4.32;;
53666;SDS011;39568;51.026;5.468;2023-04-25T07:04:46;4.35;;;2.47;;
53666;SDS011;39568;51.026;5.468;2023-04-25T07:07:18;14.18;;;3.03;;
53666;SDS011;39568;51.026;5.468;2023-04-25T07:09:44;26.15;;;4.97;;
53666;SDS011;39568;51.026;5.468;2023-04-25T07:12:11;14.88;;;4.32;;
53666;SDS011;39568;51.026;5.468;2023-04-25T07:14:38;16.80;;;4.78;;
53666;SDS011;39568;51.026;5.468;2023-04-25T07:17:05;11.07;;;3.88;;
53666;SDS011;39568;51.026;5.468;2023-04-25T07:19:36;14.63;;;3.03;;
53666;SDS011;39568;51.026;5.468;2023-04-25T07:22:04;14.50;;;4.30;;
53666;SDS011;39568;51.026;5.468;2023-04-25T07:24:33;4.85;;;2.90;;
53666;SDS011;39568;51.026;5.468;2023-04-25T07:26:59;5.07;;;2.88;;
53666;SDS011;39568;51.026;5.468;2023-04-25T07:29:27;5.68;;;2.25;;
53666;SDS011;39568;51.026;5.468;2023-04-25T07:31:55;20.35;;;3.85;;
53666;SDS011;39568;51.026;5.468;2023-04-25T07:34:21;11.90;;;3.38;;
53666;SDS011;39568;51.026;5.468;2023-04-25T07:36:48;16.75;;;2.25;;
53666;SDS011;39568;51.026;5.468;2023-04-25T07:39:15;9.15;;;2.05;;
53666;SDS011;39568;51.026;5.468;2023-04-25T07:41:43;14.82;;;3.33;;
53666;SDS011;39568;51.026;5.468;2023-04-25T07:44:14;7.35;;;1.98;;
53666;SDS011;39568;51.026;5.468;2023-04-25T07:46:41;10.88;;;0.90;;
53666;SDS011;39568;51.026;5.468;2023-04-25T07:49:07;9.98;;;2.72;;
53666;SDS011;39568;51.026;5.468;2023-04-25T07:51:35;13.27;;;3.45;;
53666;SDS011;39568;51.026;5.468;2023-04-25T07:54:01;23.05;;;3.67;;
53666;SDS011;39568;51.026;5.468;2023-04-25T07:56:28;18.05;;;5.35;;
53666;SDS011;39568;51.026;5.468;2023-04-25T07:58:56;16.42;;;2.45;;
53666;SDS011;39568;51.026;5.468;2023-04-25T08:01:23;23.75;;;3.67;;
53666;SDS011;39568;51.026;5.468;2023-04-25T08:03:50;23.50;;;3.88;;
53666;SDS011;39568;51.026;5.468;2023-04-25T08:06:16;25.08;;;2.58;;
53666;SDS011;39568;51.026;5.468;2023-04-25T08:08:43;13.85;;;3.97;;
53666;SDS011;39568;51.026;5.468;2023-04-25T08:11:11;22.48;;;2.63;;
53666;SDS011;39568;51.026;5.468;2023-04-25T08:13:38;10.25;;;3.10;;
53666;SDS011;39568;51.026;5.468;2023-04-25T08:16:09;4.10;;;1.83;;
53666;SDS011;39568;51.026;5.468;2023-04-25T08:18:40;16.17;;;2.17;;
53666;SDS011;39568;51.026;5.468;2023-04-25T08:21:07;13.65;;;2.33;;
53666;SDS011;39568;51.026;5.468;2023-04-25T08:23:36;15.70;;;2.50;;
53666;SDS011;39568;51.026;5.468;2023-04-25T08:26:03;9.38;;;3.35;;
53666;SDS011;39568;51.026;5.468;2023-04-25T08:28:30;23.10;;;2.42;;
53666;SDS011;39568;51.026;5.468;2023-04-25T08:30:57;21.30;;;2.75;;
53666;SDS011;39568;51.026;5.468;2023-04-25T08:33:26;9.77;;;2.13;;
53666;SDS011;39568;51.026;5.468;2023-04-25T08:35:52;10.10;;;2.60;;
53666;SDS011;39568;51.026;5.468;2023-04-25T08:38:19;13.13;;;2.55;;
53666;SDS011;39568;51.026;5.468;2023-04-25T08:40:50;12.43;;;2.83;;
53666;SDS011;39568;51.026;5.468;2023-04-25T08:43:18;1.75;;;1.63;;
53666;SDS011;39568;51.026;5.468;2023-04-25T08:45:46;10.38;;;2.40;;
53666;SDS011;39568;51.026;5.468;2023-04-25T08:48:16;8.25;;;2.17;;
53666;SDS011;39568;51.026;5.468;2023-04-25T08:50:46;4.72;;;2.63;;
53666;SDS011;39568;51.026;5.468;2023-04-25T08:53:17;13.57;;;2.25;;
53666;SDS011;39568;51.026;5.468;2023-04-25T08:55:50;17.55;;;1.95;;
53666;SDS011;39568;51.026;5.468;2023-04-25T08:58:18;9.27;;;1.55;;
53666;SDS011;39568;51.026;5.468;2023-04-25T09:00:45;10.77;;;2.55;;
53666;SDS011;39568;51.026;5.468;2023-04-25T09:03:12;7.47;;;1.98;;
53666;SDS011;39568;51.026;5.468;2023-04-25T09:05:39;14.25;;;2.60;;
53666;SDS011;39568;51.026;5.468;2023-04-25T09:08:08;6.53;;;1.63;;
53666;SDS011;39568;51.026;5.468;2023-04-25T09:10:36;8.05;;;2.15;;
53666;SDS011;39568;51.026;5.468;2023-04-25T09:13:05;11.38;;;2.03;;
53666;SDS011;39568;51.026;5.468;2023-04-25T09:15:34;10.02;;;1.75;;
53666;SDS011;39568;51.026;5.468;2023-04-25T09:18:13;4.82;;;1.20;;
53666;SDS011;39568;51.026;5.468;2023-04-25T09:20:48;9.70;;;1.80;;
53666;SDS011;39568;51.026;5.468;2023-04-25T09:23:16;2.25;;;1.40;;
53666;SDS011;39568;51.026;5.468;2023-04-25T09:25:47;3.80;;;0.90;;
53666;SDS011;39568;51.026;5.468;2023-04-25T09:28:24;1.60;;;0.82;;
53666;SDS011;39568;51.026;5.468;2023-04-25T09:30:54;3.22;;;1.42;;
53666;SDS011;39568;51.026;5.468;2023-04-25T09:33:26;4.60;;;1.52;;
53666;SDS011;39568;51.026;5.468;2023-04-25T09:35:56;7.32;;;2.17;;
53666;SDS011;39568;51.026;5.468;2023-04-25T09:38:31;5.07;;;1.50;;
53666;SDS011;39568;51.026;5.468;2023-04-25T09:40:58;5.07;;;1.08;;
53666;SDS011;39568;51.026;5.468;2023-04-25T09:43:27;8.98;;;2.00;;
53666;SDS011;39568;51.026;5.468;2023-04-25T09:45:54;5.10;;;1.65;;
53666;SDS011;39568;51.026;5.468;2023-04-25T09:48:25;7.10;;;1.67;;
53666;SDS011;39568;51.026;5.468;2023-04-25T09:53:40;10.90;;;2.05;;
53666;SDS011;39568;51.026;5.468;2023-04-25T09:56:08;9.18;;;2.05;;
53666;SDS011;39568;51.026;5.468;2023-04-25T09:58:36;4.03;;;1.63;;
53666;SDS011;39568;51.026;5.468;2023-04-25T10:01:04;9.60;;;2.25;;
53666;SDS011;39568;51.026;5.468;2023-04-25T10:03:34;7.32;;;1.50;;
53666;SDS011;39568;51.026;5.468;2023-04-25T10:06:03;9.90;;;2.13;;
53666;SDS011;39568;51.026;5.468;2023-04-25T10:08:34;10.07;;;1.98;;
53666;SDS011;39568;51.026;5.468;2023-04-25T10:11:03;5.38;;;1.67;;
53666;SDS011;39568;51.026;5.468;2023-04-25T10:13:32;7.60;;;2.45;;
53666;SDS011;39568;51.026;5.468;2023-04-25T10:16:00;5.57;;;2.25;;
53666;SDS011;39568;51.026;5.468;2023-04-25T10:18:28;14.35;;;1.92;;
53666;SDS011;39568;51.026;5.468;2023-04-25T10:20:57;6.95;;;2.28;;
53666;SDS011;39568;51.026;5.468;2023-04-25T10:23:26;10.93;;;2.03;;
53666;SDS011;39568;51.026;5.468;2023-04-25T10:25:53;4.40;;;0.95;;
53666;SDS011;39568;51.026;5.468;2023-04-25T10:28:23;5.72;;;1.10;;
53666;SDS011;39568;51.026;5.468;2023-04-25T10:30:56;3.92;;;0.93;;
53666;SDS011;39568;51.026;5.468;2023-04-25T10:33:33;14.02;;;2.60;;
53666;SDS011;39568;51.026;5.468;2023-04-25T10:36:08;5.60;;;1.67;;
53666;SDS011;39568;51.026;5.468;2023-04-25T10:38:36;4.18;;;1.80;;
53666;SDS011;39568;51.026;5.468;2023-04-25T10:41:04;4.28;;;2.05;;
53666;SDS011;39568;51.026;5.468;2023-04-25T10:43:35;3.53;;;1.75;;
53666;SDS011;39568;51.026;5.468;2023-04-25T10:48:43;1.70;;;1.35;;
53666;SDS011;39568;51.026;5.468;2023-04-25T10:51:16;4.13;;;2.22;;
53666;SDS011;39568;51.026;5.468;2023-04-25T10:53:44;2.72;;;1.55;;
53666;SDS011;39568;51.026;5.468;2023-04-25T10:56:20;5.82;;;1.58;;
53666;SDS011;39568;51.026;5.468;2023-04-25T10:58:49;6.63;;;1.08;;
53666;SDS011;39568;51.026;5.468;2023-04-25T11:01:19;20.38;;;3.20;;
53666;SDS011;39568;51.026;5.468;2023-04-25T11:03:46;7.18;;;1.58;;
53666;SDS011;39568;51.026;5.468;2023-04-25T11:06:18;4.88;;;1.67;;
53666;SDS011;39568;51.026;5.468;2023-04-25T11:08:49;10.18;;;1.50;;
53666;SDS011;39568;51.026;5.468;2023-04-25T11:11:17;3.05;;;1.45;;
53666;SDS011;39568;51.026;5.468;2023-04-25T11:13:48;3.35;;;1.35;;
53666;SDS011;39568;51.026;5.468;2023-04-25T11:16:15;10.20;;;2.00;;
53666;SDS011;39568;51.026;5.468;2023-04-25T11:18:42;9.60;;;1.52;;
53666;SDS011;39568;51.026;5.468;2023-04-25T11:21:09;11.30;;;1.88;;
53666;SDS011;39568;51.026;5.468;2023-04-25T11:23:36;7.55;;;1.67;;
53666;SDS011;39568;51.026;5.468;2023-04-25T11:26:03;3.97;;;1.17;;
53666;SDS011;39568;51.026;5.468;2023-04-25T11:28:30;9.35;;;1.80;;
53666;SDS011;39568;51.026;5.468;2023-04-25T11:30:58;5.00;;;0.68;;
53666;SDS011;39568;51.026;5.468;2023-04-25T11:33:26;11.40;;;1.63;;
53666;SDS011;39568;51.026;5.468;2023-04-25T11:35:53;4.47;;;1.23;;
53666;SDS011;39568;51.026;5.468;2023-04-25T11:38:21;11.50;;;1.90;;
53666;SDS011;39568;51.026;5.468;2023-04-25T11:40:51;3.78;;;1.20;;
53666;SDS011;39568;51.026;5.468;2023-04-25T11:43:19;2.42;;;1.08;;
53666;SDS011;39568;51.026;5.468;2023-04-25T11:45:48;6.05;;;1.15;;
